Time;durP1;ratioP1;P1;durP2;ratioP2;P2;SDS_P1;SDS_P2;PMS_P1;PMS_P2;Temp;Humidity;BMP_temperature;BMP_pressure;BME280_temperature;BME280_humidity;BME280_pressure;Samples;Min_cycle;Max_cycle;Signal;HPM_P1;HPM_P2
2021/12/26 00:00:44;;;;;;;6.00;2.60;;;;;;;-2.90;71.42;100891.22;5013457;28;20036;-78
2021/12/26 00:03:09;;;;;;;5.40;2.53;;;;;;;-2.91;72.01;100887.81;5003632;28;20076;-78
2021/12/26 00:05:34;;;;;;;5.57;2.47;;;;;;;-2.90;71.64;100878.53;5001611;28;20318;-78
2021/12/26 00:08:00;;;;;;;4.95;2.33;;;;;;;-2.88;71.87;100894.66;5023260;28;20428;-78
2021/12/26 00:10:27;;;;;;;5.63;2.25;;;;;;;-2.86;71.71;100891.34;5011043;28;20377;-78
2021/12/26 00:12:53;;;;;;;4.65;2.53;;;;;;;-2.87;72.13;100891.31;5013611;28;20038;-78
2021/12/26 00:15:18;;;;;;;4.78;2.70;;;;;;;-2.84;72.58;100886.31;5020604;28;20108;-78
2021/12/26 00:17:44;;;;;;;4.97;2.75;;;;;;;-2.85;72.02;100879.53;5017892;28;20161;-78
2021/12/26 00:20:11;;;;;;;6.65;2.50;;;;;;;-2.85;72.22;100882.91;5018734;28;20036;-78
2021/12/26 00:22:38;;;;;;;5.90;2.55;;;;;;;-2.86;72.15;100891.34;5022199;28;20563;-78
2021/12/26 00:25:05;;;;;;;5.15;2.30;;;;;;;-2.86;71.38;100882.88;5019856;28;20065;-78
2021/12/26 00:27:32;;;;;;;8.30;3.00;;;;;;;-2.82;71.96;100884.69;5002772;28;20026;-78
2021/12/26 00:29:58;;;;;;;5.30;2.60;;;;;;;-2.83;72.29;100875.38;5016339;28;20030;-78
2021/12/26 00:32:23;;;;;;;5.45;2.63;;;;;;;-2.80;72.39;100878.84;5011956;28;20044;-78
2021/12/26 00:34:50;;;;;;;5.63;2.40;;;;;;;-2.78;71.96;100872.16;5014602;28;20053;-78
2021/12/26 00:37:16;;;;;;;4.25;2.40;;;;;;;-2.80;71.06;100868.69;5012653;28;20116;-78
2021/12/26 00:39:42;;;;;;;5.78;2.50;;;;;;;-2.81;71.59;100869.53;5016648;28;20033;-78
2021/12/26 00:42:08;;;;;;;7.20;2.60;;;;;;;-2.81;71.83;100864.47;5019727;28;20044;-78
2021/12/26 00:44:38;;;;;;;5.47;2.75;;;;;;;-2.85;71.84;100860.09;5019251;28;20326;-78
2021/12/26 00:47:04;;;;;;;5.55;2.63;;;;;;;-2.88;72.28;100854.94;5015521;28;20108;-78
2021/12/26 00:49:30;;;;;;;4.38;2.40;;;;;;;-2.92;71.85;100855.66;5008364;28;20108;-78
2021/12/26 00:51:55;;;;;;;6.07;2.92;;;;;;;-3.00;71.92;100848.66;5006578;28;20045;-78
2021/12/26 00:54:21;;;;;;;7.68;2.70;;;;;;;-3.04;72.13;100859.50;5018034;28;20462;-78
2021/12/26 00:56:46;;;;;;;6.18;2.70;;;;;;;-3.11;72.57;100852.50;5006412;28;20029;-78
2021/12/26 00:59:11;;;;;;;6.18;2.58;;;;;;;-3.20;72.72;100848.00;5018639;28;20048;-78
2021/12/26 01:01:37;;;;;;;6.20;2.70;;;;;;;-3.20;73.29;100855.59;5008040;28;20052;-78
2021/12/26 01:04:03;;;;;;;6.97;3.10;;;;;;;-3.22;72.88;100855.59;5015429;28;20582;-78
2021/12/26 01:06:28;;;;;;;7.00;3.05;;;;;;;-3.23;73.49;100861.47;5019820;28;20492;-78
2021/12/26 01:08:54;;;;;;;6.43;2.70;;;;;;;-3.20;74.28;100863.22;5014469;28;20036;-78
2021/12/26 01:11:40;;;;;;;5.53;2.65;;;;;;;-3.18;74.13;100864.13;5019323;28;20040;-78
2021/12/26 01:14:09;;;;;;;6.30;2.63;;;;;;;-3.15;73.80;100863.38;5014599;28;20136;-78
2021/12/26 01:16:36;;;;;;;8.10;2.63;;;;;;;-3.15;73.75;100868.44;5020508;28;20389;-78
2021/12/26 01:19:09;;;;;;;6.88;2.60;;;;;;;-3.14;73.10;100867.63;5014188;28;20365;-78
2021/12/26 01:21:35;;;;;;;6.25;2.90;;;;;;;-3.12;74.11;100866.84;5020138;28;20276;-78
2021/12/26 01:24:07;;;;;;;8.70;3.17;;;;;;;-3.10;74.41;100874.50;5017452;28;20034;-77
2021/12/26 01:26:33;;;;;;;5.95;2.58;;;;;;;-3.07;73.71;100874.63;4999658;28;20484;-78
2021/12/26 01:28:59;;;;;;;6.45;2.67;;;;;;;-3.05;74.07;100878.03;5017169;28;20088;-79
2021/12/26 01:31:25;;;;;;;6.25;2.70;;;;;;;-3.02;73.36;100878.16;5018397;28;20025;-79
2021/12/26 01:33:57;;;;;;;5.22;2.47;;;;;;;-2.98;73.50;100878.28;4999936;28;20033;-79
2021/12/26 01:36:23;;;;;;;4.80;2.40;;;;;;;-2.96;74.29;100869.06;4999662;28;20381;-79
2021/12/26 01:38:49;;;;;;;7.05;2.80;;;;;;;-2.91;73.36;100874.25;5014272;28;20022;-79
2021/12/26 01:41:16;;;;;;;5.10;2.80;;;;;;;-2.88;73.48;100864.22;5007971;28;20083;-79
2021/12/26 01:43:45;;;;;;;5.75;2.65;;;;;;;-2.86;74.17;100867.66;5018583;28;20045;-79
2021/12/26 01:46:12;;;;;;;7.95;3.20;;;;;;;-2.80;73.50;100870.41;5019209;28;20052;-79
2021/12/26 01:48:37;;;;;;;5.00;2.63;;;;;;;-2.80;73.10;100865.34;4996700;28;20021;-79
2021/12/26 01:51:03;;;;;;;4.97;2.40;;;;;;;-2.79;73.26;100862.81;5000994;28;20036;-79
2021/12/26 01:53:37;;;;;;;6.55;2.80;;;;;;;-2.82;73.24;100851.72;5015163;28;20034;-79
2021/12/26 01:56:09;;;;;;;5.07;2.47;;;;;;;-2.79;73.39;100857.75;5017296;28;20060;-79
2021/12/26 01:58:36;;;;;;;6.45;2.40;;;;;;;-2.78;72.50;100854.41;5021883;28;20488;-79
2021/12/26 02:01:12;;;;;;;6.00;2.60;;;;;;;-2.83;73.10;100844.94;4996003;28;20075;-79
2021/12/26 02:03:39;;;;;;;5.53;2.95;;;;;;;-2.79;72.85;100842.53;5020811;28;20037;-79
2021/12/26 02:06:07;;;;;;;7.95;3.00;;;;;;;-2.78;72.44;100843.38;5015315;28;20037;-79
2021/12/26 02:08:33;;;;;;;6.68;2.75;;;;;;;-2.78;72.88;100845.94;5018454;28;20082;-79
2021/12/26 02:11:00;;;;;;;8.73;3.08;;;;;;;-2.75;72.80;100850.25;5018251;28;20030;-79
2021/12/26 02:13:26;;;;;;;8.18;3.60;;;;;;;-2.79;71.85;100851.81;5017892;28;20125;-79
2021/12/26 02:15:52;;;;;;;6.63;2.95;;;;;;;-2.80;72.62;100840.81;5021412;28;20506;-79
2021/12/26 02:18:17;;;;;;;6.68;3.15;;;;;;;-2.80;71.42;100845.03;5017780;28;21367;-79
2021/12/26 02:21:05;;;;;;;6.85;2.90;;;;;;;-2.80;72.36;100839.97;5019450;28;20036;-79
2021/12/26 02:29:09;;;;;;;5.38;2.58;;;;;;;-2.77;72.00;100832.44;5018704;28;20016;-79
2021/12/26 02:31:35;;;;;;;9.48;2.55;;;;;;;-2.77;72.82;100832.44;5007041;28;20030;-79
2021/12/26 02:34:01;;;;;;;7.22;2.90;;;;;;;-2.75;73.52;100830.81;5010114;28;20476;-79
2021/12/26 02:36:26;;;;;;;6.47;2.88;;;;;;;-2.72;73.14;100837.63;5013317;28;20022;-79
2021/12/26 02:38:52;;;;;;;6.32;2.90;;;;;;;-2.72;73.05;100835.97;4997733;28;20388;-79
2021/12/26 02:41:17;;;;;;;5.45;2.72;;;;;;;-2.71;73.16;100835.16;5017252;28;20026;-79
2021/12/26 02:43:42;;;;;;;5.82;2.60;;;;;;;-2.72;72.41;100830.88;5014635;28;20029;-79
2021/12/26 02:46:08;;;;;;;7.53;2.65;;;;;;;-2.70;73.87;100834.34;5016529;28;20541;-79
2021/12/26 02:48:38;;;;;;;5.43;2.78;;;;;;;-2.69;72.54;100830.13;5013945;28;20104;-79
2021/12/26 02:51:05;;;;;;;6.10;3.15;;;;;;;-2.69;72.46;100833.53;5011465;28;20025;-79
2021/12/26 02:53:31;;;;;;;8.13;3.08;;;;;;;-2.72;72.27;100830.88;5012315;28;20072;-79
2021/12/26 02:55:59;;;;;;;6.13;2.88;;;;;;;-2.71;72.54;100832.63;4999732;28;20033;-79
2021/12/26 02:58:24;;;;;;;11.63;3.28;;;;;;;-2.68;72.51;100837.78;5016759;28;20036;-79
2021/12/26 03:00:56;;;;;;;6.63;2.83;;;;;;;-2.69;72.01;100836.06;5017106;28;20037;-79
2021/12/26 03:03:21;;;;;;;7.38;3.08;;;;;;;-2.70;72.03;100831.81;5018123;28;20029;-79
2021/12/26 03:05:55;;;;;;;6.43;3.00;;;;;;;-2.72;72.31;100828.34;5015144;28;20026;-79
2021/12/26 03:08:20;;;;;;;6.13;2.77;;;;;;;-2.77;71.63;100827.38;5017603;28;20532;-79
2021/12/26 03:10:46;;;;;;;4.95;2.80;;;;;;;-2.80;71.96;100839.97;5012478;28;20112;-79
2021/12/26 03:13:13;;;;;;;5.18;2.53;;;;;;;-2.83;72.50;100834.78;5013092;28;20034;-79
2021/12/26 03:15:39;;;;;;;5.25;3.00;;;;;;;-2.85;72.33;100832.22;5016525;28;20082;-79
2021/12/26 03:18:06;;;;;;;8.32;3.22;;;;;;;-2.85;72.52;100829.66;5004274;28;20037;-79
2021/12/26 03:20:38;;;;;;;5.18;2.50;;;;;;;-2.85;71.99;100832.22;5002699;28;20018;-79
2021/12/26 03:23:04;;;;;;;4.65;2.60;;;;;;;-2.86;72.43;100827.09;5015650;28;20061;-79
2021/12/26 03:25:32;;;;;;;5.65;2.97;;;;;;;-2.86;72.57;100827.09;5018018;28;20076;-79
2021/12/26 03:27:57;;;;;;;6.55;2.97;;;;;;;-2.86;72.18;100827.94;5015787;28;20615;-79
2021/12/26 03:30:25;;;;;;;6.80;2.83;;;;;;;-2.88;71.89;100827.06;5020186;28;20229;-79
2021/12/26 03:32:51;;;;;;;7.88;3.53;;;;;;;-2.90;72.54;100815.13;5020954;28;20044;-79
2021/12/26 03:35:18;;;;;;;7.07;3.00;;;;;;;-2.90;72.20;100810.94;5021616;28;20101;-79
2021/12/26 03:37:44;;;;;;;9.27;3.00;;;;;;;-2.89;73.05;100811.78;4998648;28;20022;-79
2021/12/26 03:40:10;;;;;;;6.90;3.20;;;;;;;-2.86;72.87;100807.66;5014527;28;20149;-79
2021/12/26 03:42:36;;;;;;;7.70;3.35;;;;;;;-2.89;71.78;100805.06;5006361;28;20048;-79
2021/12/26 03:45:04;;;;;;;8.02;2.90;;;;;;;-2.91;72.46;100799.06;5019684;28;20386;-79
2021/12/26 03:47:31;;;;;;;6.40;3.20;;;;;;;-2.95;72.86;100794.72;5018118;28;20030;-79
2021/12/26 03:49:57;;;;;;;7.38;3.22;;;;;;;-2.95;73.79;100798.94;5019408;28;20022;-79
2021/12/26 03:52:22;;;;;;;7.05;3.00;;;;;;;-2.94;72.97;100804.06;5007458;28;20017;-79
2021/12/26 03:54:49;;;;;;;6.32;3.22;;;;;;;-2.93;73.44;100805.75;5011165;28;20499;-79
2021/12/26 03:57:14;;;;;;;6.28;2.80;;;;;;;-2.94;73.06;100799.00;5019337;28;20068;-79
2021/12/26 03:59:39;;;;;;;6.28;2.75;;;;;;;-2.92;73.26;100809.16;5020765;28;20061;-79
2021/12/26 04:02:05;;;;;;;7.13;3.45;;;;;;;-2.92;72.95;100810.00;5018746;28;20132;-79
2021/12/26 04:04:30;;;;;;;7.43;3.70;;;;;;;-2.92;72.76;100806.63;5021915;28;20091;-79
2021/12/26 04:06:56;;;;;;;8.50;3.42;;;;;;;-2.92;74.04;100802.41;5009557;28;20034;-79
2021/12/26 04:09:21;;;;;;;9.55;3.40;;;;;;;-2.90;73.77;100800.78;5018330;28;20037;-79
2021/12/26 04:11:46;;;;;;;8.05;2.83;;;;;;;-2.88;72.86;100800.84;5015954;28;20545;-79
2021/12/26 04:14:14;;;;;;;7.63;3.38;;;;;;;-2.89;73.54;100796.56;5017847;28;20026;-79
2021/12/26 04:16:40;;;;;;;7.15;3.15;;;;;;;-2.94;72.59;100804.06;5020236;28;20033;-79
2021/12/26 04:19:05;;;;;;;8.63;2.83;;;;;;;-3.02;72.85;100791.97;5018537;28;20082;-79
2021/12/26 04:21:31;;;;;;;6.68;3.38;;;;;;;-3.08;72.50;100787.56;4998022;28;20072;-79
2021/12/26 04:23:57;;;;;;;6.10;2.90;;;;;;;-3.20;73.59;100790.56;5021796;28;20068;-79
2021/12/26 04:26:22;;;;;;;5.90;3.15;;;;;;;-3.29;73.81;100789.44;4997953;28;20533;-79
2021/12/26 04:28:47;;;;;;;6.00;3.00;;;;;;;-3.39;74.24;100788.28;5019854;28;20030;-79
2021/12/26 04:31:13;;;;;;;7.15;3.33;;;;;;;-3.47;74.68;100789.72;5017319;28;20423;-80
2021/12/26 04:33:38;;;;;;;8.05;3.40;;;;;;;-3.52;75.02;100785.31;5009621;28;20026;-80
2021/12/26 04:36:04;;;;;;;8.20;3.72;;;;;;;-3.56;74.68;100786.06;5009335;28;20068;-80
2021/12/26 04:38:29;;;;;;;6.38;3.15;;;;;;;-3.59;75.11;100791.88;5017430;28;20158;-79
2021/12/26 04:40:55;;;;;;;6.72;3.00;;;;;;;-3.62;75.31;100779.94;5014258;28;21760;-80
2021/12/26 04:43:22;;;;;;;6.57;3.30;;;;;;;-3.63;75.46;100787.53;5006070;28;20044;-80
2021/12/26 04:45:48;;;;;;;8.60;3.45;;;;;;;-3.70;75.85;100778.00;5015684;28;20037;-80
2021/12/26 04:48:14;;;;;;;9.27;3.55;;;;;;;-3.71;76.27;100778.81;5016215;28;20030;-80
2021/12/26 04:50:39;;;;;;;5.93;3.17;;;;;;;-3.75;76.73;100776.97;5018482;28;20025;-80
2021/12/26 04:53:05;;;;;;;7.28;3.35;;;;;;;-3.81;76.46;100777.63;5016666;28;20036;-79
2021/12/26 04:55:30;;;;;;;8.48;3.20;;;;;;;-3.84;76.44;100785.16;5015509;28;20393;-80
2021/12/26 04:57:56;;;;;;;7.68;3.15;;;;;;;-3.88;76.75;100784.97;5015331;28;20061;-80
2021/12/26 05:00:24;;;;;;;7.90;3.30;;;;;;;-3.89;77.03;100775.69;5020379;28;20120;-79
2021/12/26 05:02:51;;;;;;;6.30;3.15;;;;;;;-3.93;76.92;100774.72;5020580;28;20053;-79
2021/12/26 05:05:17;;;;;;;6.75;3.15;;;;;;;-3.96;76.99;100761.97;5008165;28;20495;-79
2021/12/26 05:07:43;;;;;;;7.80;3.67;;;;;;;-3.96;77.54;100771.22;5020383;28;20022;-79
2021/12/26 05:10:11;;;;;;;7.35;3.08;;;;;;;-4.03;77.45;100770.16;5015210;28;20030;-79
2021/12/26 05:12:36;;;;;;;9.00;3.38;;;;;;;-4.01;77.68;100774.44;5018779;28;20475;-79
2021/12/26 05:15:04;;;;;;;6.85;3.20;;;;;;;-4.04;77.89;100774.38;5017099;28;20041;-79
2021/12/26 05:17:30;;;;;;;8.40;3.70;;;;;;;-4.03;78.52;100770.16;5017330;28;20040;-79
2021/12/26 05:19:56;;;;;;;7.80;3.33;;;;;;;-4.07;78.34;100769.19;5017757;28;20033;-79
2021/12/26 05:22:22;;;;;;;6.63;3.30;;;;;;;-4.07;77.78;100766.66;5018760;28;20506;-80
2021/12/26 05:24:48;;;;;;;8.65;3.55;;;;;;;-4.10;78.38;100761.50;5019639;28;20208;-79
2021/12/26 05:27:14;;;;;;;7.68;3.75;;;;;;;-4.10;78.84;100763.19;5018285;28;20404;-80
2021/12/26 05:29:39;;;;;;;7.60;3.88;;;;;;;-4.14;78.82;100754.59;5007788;28;20534;-79
2021/12/26 05:32:05;;;;;;;7.45;3.38;;;;;;;-4.15;79.67;100763.00;5015851;28;20079;-80
2021/12/26 05:34:30;;;;;;;7.45;3.58;;;;;;;-4.18;79.99;100760.38;5013567;28;20367;-80
2021/12/26 05:36:55;;;;;;;8.32;3.60;;;;;;;-4.20;79.06;100762.00;4999906;28;20025;-79
2021/12/26 05:39:21;;;;;;;6.65;3.42;;;;;;;-4.21;79.17;100762.78;5012150;28;20069;-80
2021/12/26 05:41:46;;;;;;;7.40;3.47;;;;;;;-4.22;79.16;100767.78;5015780;28;20075;-79
2021/12/26 05:44:11;;;;;;;9.07;3.60;;;;;;;-4.28;79.57;100753.28;5013570;28;20384;-79
2021/12/26 05:46:37;;;;;;;8.90;3.67;;;;;;;-4.26;80.02;100758.41;5012203;28;20068;-80
2021/12/26 05:49:03;;;;;;;8.77;3.60;;;;;;;-4.27;80.15;100757.53;5016700;28;20100;-79
2021/12/26 05:51:28;;;;;;;7.65;3.63;;;;;;;-4.29;80.23;100748.16;5013555;28;20633;-79
2021/12/26 05:53:54;;;;;;;7.20;3.30;;;;;;;-4.29;79.51;100750.69;5016036;28;20048;-79
2021/12/26 05:56:19;;;;;;;7.85;3.70;;;;;;;-4.31;80.37;100742.22;5013638;28;20028;-79
2021/12/26 05:58:45;;;;;;;8.52;3.80;;;;;;;-4.33;79.98;100743.81;5018471;28;20034;-79
2021/12/26 06:01:11;;;;;;;7.80;3.50;;;;;;;-4.35;80.28;100738.69;5019918;28;20455;-80
2021/12/26 06:03:36;;;;;;;7.50;3.75;;;;;;;-4.35;80.03;100741.22;5022750;28;20037;-79
2021/12/26 06:06:02;;;;;;;7.68;3.20;;;;;;;-4.37;79.65;100740.34;5014007;28;20025;-79
2021/12/26 06:08:27;;;;;;;9.52;4.20;;;;;;;-4.35;80.86;100750.47;5014251;28;20116;-80
2021/12/26 06:10:53;;;;;;;8.45;3.63;;;;;;;-4.37;80.05;100750.44;5016353;28;20110;-79
2021/12/26 06:13:18;;;;;;;6.53;3.35;;;;;;;-4.41;79.71;100749.47;5016661;28;20038;-80
2021/12/26 06:15:43;;;;;;;8.40;3.40;;;;;;;-4.43;80.65;100750.22;5012967;28;20025;-79
2021/12/26 06:18:09;;;;;;;7.28;3.40;;;;;;;-4.46;80.71;100750.97;5011604;28;20527;-80
2021/12/26 06:20:34;;;;;;;9.43;3.80;;;;;;;-4.47;80.94;100748.41;5002264;28;20029;-80
2021/12/26 06:23:00;;;;;;;8.82;3.90;;;;;;;-4.45;81.63;100744.25;5008216;28;20108;-80
2021/12/26 06:25:25;;;;;;;8.73;3.80;;;;;;;-4.45;80.65;100745.13;5023333;28;20400;-79
2021/12/26 06:27:50;;;;;;;8.23;3.47;;;;;;;-4.46;80.95;100742.53;5010693;28;20104;-79
2021/12/26 06:30:16;;;;;;;8.40;3.60;;;;;;;-4.48;81.06;100739.94;4996566;28;20042;-80
2021/12/26 06:32:42;;;;;;;7.05;3.53;;;;;;;-4.47;80.37;100741.66;5025322;28;20400;-79
2021/12/26 06:35:08;;;;;;;6.95;3.33;;;;;;;-4.48;80.53;100736.56;5027194;28;20036;-80
2021/12/26 06:37:34;;;;;;;9.73;3.40;;;;;;;-4.45;80.74;100745.13;5016515;28;20141;-80
2021/12/26 06:40:00;;;;;;;6.38;3.22;;;;;;;-4.47;80.81;100740.81;5020019;28;20101;-80
2021/12/26 06:42:28;;;;;;;8.25;3.22;;;;;;;-4.49;80.45;100733.16;5009726;28;20798;-80
2021/12/26 06:44:54;;;;;;;9.10;3.58;;;;;;;-4.51;80.63;100733.94;5010023;28;20026;-79
2021/12/26 06:47:19;;;;;;;8.75;3.20;;;;;;;-4.50;81.02;100735.63;5009203;28;20033;-80
2021/12/26 06:49:44;;;;;;;8.02;3.78;;;;;;;-4.49;81.14;100744.94;5012231;28;20022;-80
2021/12/26 06:52:10;;;;;;;7.45;3.42;;;;;;;-4.49;81.79;100734.81;5010019;28;20063;-80
2021/12/26 06:54:36;;;;;;;7.65;3.25;;;;;;;-4.52;81.06;100729.69;5009119;28;20388;-80
2021/12/26 06:57:03;;;;;;;8.43;3.55;;;;;;;-4.52;81.03;100732.22;5016617;28;20026;-80
2021/12/26 06:59:29;;;;;;;8.43;3.65;;;;;;;-4.52;82.01;100734.72;5013959;28;20108;-80
2021/12/26 07:01:55;;;;;;;7.28;3.22;;;;;;;-4.53;81.96;100730.47;5009255;28;20065;-80
2021/12/26 07:04:20;;;;;;;7.10;3.10;;;;;;;-4.53;81.58;100727.94;5009265;28;20030;-80
2021/12/26 07:06:45;;;;;;;7.05;3.60;;;;;;;-4.53;81.49;100727.94;5009225;28;20101;-80
2021/12/26 07:09:11;;;;;;;9.02;3.40;;;;;;;-4.50;81.61;100735.63;5007686;28;20033;-78
2021/12/26 07:11:36;;;;;;;9.10;3.30;;;;;;;-4.50;81.32;100730.56;5012906;28;20080;-78
2021/12/26 07:14:01;;;;;;;6.18;3.05;;;;;;;-4.52;81.25;100733.06;5019080;28;20021;-78
2021/12/26 07:16:27;;;;;;;7.20;3.50;;;;;;;-4.51;81.28;100737.31;5016020;28;20025;-78
2021/12/26 07:18:52;;;;;;;6.53;3.00;;;;;;;-4.49;81.31;100732.28;5013227;28;20117;-78
2021/12/26 07:21:18;;;;;;;8.90;3.58;;;;;;;-4.49;81.56;100744.94;5012346;28;20484;-78
2021/12/26 07:23:43;;;;;;;7.05;3.45;;;;;;;-4.55;81.39;100727.88;5002484;28;20140;-78
2021/12/26 07:26:09;;;;;;;9.07;3.35;;;;;;;-4.52;82.50;100733.06;5015723;28;20041;-78
2021/12/26 07:28:34;;;;;;;8.35;3.85;;;;;;;-4.52;81.68;100733.06;5016825;28;20014;-78
2021/12/26 07:31:00;;;;;;;9.57;3.30;;;;;;;-4.51;82.30;100727.22;5008328;28;20473;-78
2021/12/26 07:33:25;;;;;;;10.75;3.70;;;;;;;-4.51;81.19;100732.28;5027493;28;20037;-78
2021/12/26 07:35:51;;;;;;;7.40;3.30;;;;;;;-4.49;81.90;100732.28;5012996;28;20022;-78
2021/12/26 07:38:18;;;;;;;8.38;3.20;;;;;;;-4.49;81.77;100734.81;5018424;28;20034;-80
2021/12/26 07:40:44;;;;;;;8.80;3.45;;;;;;;-4.45;82.16;100735.00;5012678;28;20021;-80
2021/12/26 07:43:09;;;;;;;7.50;3.40;;;;;;;-4.47;81.70;100723.09;5019823;28;20100;-80
2021/12/26 07:45:35;;;;;;;7.43;3.08;;;;;;;-4.41;81.56;100728.38;5015690;28;20481;-80
2021/12/26 07:48:00;;;;;;;8.20;3.63;;;;;;;-4.40;81.68;100730.09;5023090;28;20033;-80
2021/12/26 07:50:26;;;;;;;9.85;4.03;;;;;;;-4.39;81.70;100725.09;5019664;28;20025;-80
2021/12/26 07:52:53;;;;;;;6.85;3.50;;;;;;;-4.38;81.70;100738.59;5017160;28;20033;-80
2021/12/26 07:55:18;;;;;;;8.45;3.22;;;;;;;-4.39;81.58;100736.88;5015718;28;20022;-80
2021/12/26 07:57:48;;;;;;;7.13;3.38;;;;;;;-4.38;82.25;100734.41;5022572;28;20072;-80
2021/12/26 08:00:15;;;;;;;5.47;3.22;;;;;;;-4.35;81.72;100741.22;5022765;28;20025;-80
2021/12/26 08:02:40;;;;;;;7.35;3.80;;;;;;;-4.34;81.13;100729.44;5001349;28;20060;-80
2021/12/26 08:05:06;;;;;;;7.97;3.40;;;;;;;-4.32;82.62;100733.75;5013513;28;20029;-81
2021/12/26 08:07:34;;;;;;;9.60;3.88;;;;;;;-4.29;82.84;100730.44;5011317;28;20410;-81
2021/12/26 08:09:59;;;;;;;9.82;4.05;;;;;;;-4.26;82.66;100728.91;5021239;28;20035;-80
2021/12/26 08:12:24;;;;;;;9.55;3.28;;;;;;;-4.24;82.14;100737.41;5009673;28;20116;-80
2021/12/26 08:14:49;;;;;;;8.38;3.83;;;;;;;-4.23;82.24;100735.75;5019306;28;20041;-80
2021/12/26 08:17:15;;;;;;;7.30;3.33;;;;;;;-4.23;82.16;100731.50;5027728;28;20400;-81
2021/12/26 08:19:40;;;;;;;8.50;3.85;;;;;;;-4.18;82.47;100744.34;5007267;28;20021;-80
2021/12/26 08:22:06;;;;;;;7.47;3.55;;;;;;;-4.15;82.89;100744.41;5011199;28;20053;-80
2021/12/26 08:24:31;;;;;;;7.57;3.60;;;;;;;-4.16;82.01;100741.03;5025596;28;20021;-80
2021/12/26 08:26:56;;;;;;;6.82;3.33;;;;;;;-4.12;82.33;100742.00;4994364;28;20033;-81
2021/12/26 08:29:23;;;;;;;11.77;3.80;;;;;;;-4.07;82.36;100743.88;5022969;28;20071;-80
2021/12/26 08:31:53;;;;;;;8.00;3.78;;;;;;;-3.99;83.63;100749.19;5012556;28;20033;-80
2021/12/26 08:34:21;;;;;;;10.25;3.88;;;;;;;-3.92;83.24;100747.72;5030497;28;20052;-79
2021/12/26 08:36:48;;;;;;;8.40;3.58;;;;;;;-3.84;83.24;100743.78;4996711;28;20440;-80
2021/12/26 08:39:14;;;;;;;10.95;3.95;;;;;;;-3.72;82.18;100746.69;5022249;28;20049;-80
2021/12/26 08:41:40;;;;;;;8.43;3.90;;;;;;;-3.60;83.44;100740.34;5003814;28;20400;-80
2021/12/26 08:44:05;;;;;;;11.30;4.10;;;;;;;-3.48;82.49;100744.91;5019938;28;20060;-80
2021/12/26 08:46:30;;;;;;;11.45;3.92;;;;;;;-3.37;82.24;100736.00;5005376;28;20165;-81
2021/12/26 08:48:56;;;;;;;8.52;3.75;;;;;;;-3.28;81.30;100737.97;5017622;28;20025;-80
2021/12/26 08:51:21;;;;;;;11.07;4.60;;;;;;;-3.22;81.10;100725.47;5013362;28;20059;-80
2021/12/26 08:53:46;;;;;;;7.55;4.00;;;;;;;-3.05;81.00;100746.22;5002566;28;20086;-80
2021/12/26 08:56:11;;;;;;;9.13;3.95;;;;;;;-2.96;79.72;100743.97;5030597;28;20440;-80
2021/12/26 08:58:37;;;;;;;9.75;4.18;;;;;;;-2.82;80.83;100768.03;5021135;28;20504;-80
2021/12/26 09:01:02;;;;;;;9.98;4.13;;;;;;;-2.71;79.53;100761.59;5010683;28;20500;-80
2021/12/26 09:03:28;;;;;;;12.82;4.13;;;;;;;-2.64;79.44;100748.25;5010649;28;20424;-80
2021/12/26 09:05:53;;;;;;;9.27;4.07;;;;;;;-2.53;79.45;100758.72;5010729;28;20482;-80
2021/12/26 09:08:19;;;;;;;9.95;4.00;;;;;;;-2.48;79.90;100752.94;5013408;28;20037;-80
2021/12/26 09:10:45;;;;;;;9.23;3.88;;;;;;;-2.40;78.36;100750.63;5030421;28;20108;-80
2021/12/26 09:13:10;;;;;;;6.95;3.53;;;;;;;-2.36;78.57;100744.81;5030388;28;20021;-80
2021/12/26 09:15:36;;;;;;;8.45;4.20;;;;;;;-2.30;78.41;100728.88;5012666;28;20060;-80
2021/12/26 09:18:03;;;;;;;10.23;4.47;;;;;;;-2.23;78.20;100735.81;5008940;28;20480;-80
2021/12/26 09:20:28;;;;;;;8.93;3.88;;;;;;;-2.15;77.90;100736.88;5021147;28;20049;-80
2021/12/26 09:22:54;;;;;;;9.80;4.05;;;;;;;-2.10;77.44;100732.78;5026339;28;20422;-80
2021/12/26 09:25:20;;;;;;;9.25;4.40;;;;;;;-2.08;77.46;100733.69;5010921;28;20589;-80
2021/12/26 09:27:45;;;;;;;9.80;4.28;;;;;;;-2.00;76.83;100732.19;5010306;28;20029;-80
2021/12/26 09:30:12;;;;;;;10.38;4.50;;;;;;;-1.92;76.58;100738.34;5009929;28;20095;-80
2021/12/26 09:32:38;;;;;;;12.20;4.60;;;;;;;-1.90;76.88;100735.81;5008829;28;20269;-80
2021/12/26 09:35:04;;;;;;;10.18;4.00;;;;;;;-1.84;77.08;100743.59;5009724;28;20241;-80
2021/12/26 09:37:30;;;;;;;9.77;4.30;;;;;;;-1.79;76.87;100734.41;5010050;28;20133;-80
2021/12/26 09:39:56;;;;;;;9.52;4.50;;;;;;;-1.75;76.12;100731.13;5000360;28;20142;-80
2021/12/26 09:42:24;;;;;;;9.77;4.40;;;;;;;-1.70;77.12;100732.06;5028314;28;20460;-80
2021/12/26 09:44:50;;;;;;;8.82;4.30;;;;;;;-1.61;77.07;100729.75;5029520;28;20025;-80
2021/12/26 09:47:15;;;;;;;8.10;4.22;;;;;;;-1.57;75.99;100720.53;5029329;28;20396;-80
2021/12/26 09:49:41;;;;;;;9.13;4.35;;;;;;;-1.52;76.24;100719.81;5029670;28;20494;-80
2021/12/26 09:52:07;;;;;;;11.65;4.80;;;;;;;-1.47;75.38;100736.03;5011580;28;20366;-80
2021/12/26 09:54:32;;;;;;;10.05;4.68;;;;;;;-1.47;75.62;100730.06;5008793;28;20022;-80
2021/12/26 09:56:57;;;;;;;11.23;4.65;;;;;;;-1.44;76.14;100735.25;5022281;28;20032;-80
2021/12/26 09:59:23;;;;;;;10.25;4.70;;;;;;;-1.39;76.38;100726.03;5028439;28;20029;-80
2021/12/26 10:01:51;;;;;;;11.63;4.65;;;;;;;-1.36;76.28;100724.41;5017828;28;20073;-80
2021/12/26 10:04:27;;;;;;;11.48;4.70;;;;;;;-1.32;76.46;100722.81;5011539;28;20439;-80
2021/12/26 10:07:18;;;;;;;11.25;4.97;;;;;;;-1.27;76.48;100717.00;5009516;28;20022;-80
2021/12/26 10:09:46;;;;;;;11.95;4.75;;;;;;;-1.24;75.92;100711.97;5010015;28;20033;-80
2021/12/26 10:12:13;;;;;;;8.90;4.68;;;;;;;-1.16;76.33;100708.75;5009423;28;20488;-80
2021/12/26 10:14:40;;;;;;;9.90;4.35;;;;;;;-1.11;76.36;100697.84;5010074;28;20416;-80
2021/12/26 10:17:19;;;;;;;9.43;4.82;;;;;;;-1.08;75.92;100704.66;5018454;28;20098;-80
2021/12/26 10:19:46;;;;;;;9.85;4.75;;;;;;;-1.02;76.05;100707.31;5008574;28;20045;-79
2021/12/26 10:22:14;;;;;;;11.32;4.85;;;;;;;-0.95;76.40;100693.91;5022834;28;20037;-78
2021/12/26 10:24:42;;;;;;;10.40;4.90;;;;;;;-0.91;76.22;100694.03;5009731;28;20323;-78
2021/12/26 10:27:13;;;;;;;11.43;5.13;;;;;;;-0.86;76.22;100694.97;5009589;28;20055;-78
2021/12/26 10:29:53;;;;;;;11.40;5.25;;;;;;;-0.80;75.47;100684.91;5009839;28;20053;-78
2021/12/26 10:32:32;;;;;;;10.48;4.78;;;;;;;-0.71;76.40;100675.72;5009549;28;20033;-78
2021/12/26 10:34:57;;;;;;;12.25;5.00;;;;;;;-0.63;76.08;100681.84;4996975;28;20424;-78
2021/12/26 10:37:31;;;;;;;11.97;5.63;;;;;;;-0.55;76.05;100663.34;5027969;28;20476;-78
2021/12/26 10:40:27;;;;;;;9.95;4.60;;;;;;;-0.45;76.50;100656.69;5011236;28;20105;-78
2021/12/26 10:42:56;;;;;;;9.27;5.32;;;;;;;-0.44;75.49;100660.97;5003041;28;20400;-78
2021/12/26 10:45:28;;;;;;;12.65;5.40;;;;;;;-0.41;75.95;100650.84;4995637;28;20046;-78
2021/12/26 10:47:56;;;;;;;11.48;5.00;;;;;;;-0.41;75.57;100646.59;5013577;28;20064;-79
2021/12/26 10:50:24;;;;;;;9.95;5.05;;;;;;;-0.37;75.54;100655.16;5012191;28;20053;-79
2021/12/26 10:52:59;;;;;;;10.15;5.15;;;;;;;-0.39;75.35;100651.72;5033196;28;20117;-79
2021/12/26 10:55:32;;;;;;;10.95;5.32;;;;;;;-0.40;75.76;100657.63;5015213;28;20025;-79
2021/12/26 10:58:02;;;;;;;12.13;4.97;;;;;;;-0.42;75.62;100650.00;5033057;28;20056;-79
2021/12/26 11:00:32;;;;;;;11.30;5.28;;;;;;;-0.39;76.06;100649.16;5032828;28;20496;-79
2021/12/26 11:03:02;;;;;;;11.57;5.30;;;;;;;-0.32;76.18;100658.63;5032693;28;20549;-79
2021/12/26 11:05:43;;;;;;;11.93;5.72;;;;;;;-0.25;77.12;100654.50;5032658;28;20053;-79
2021/12/26 11:08:26;;;;;;;13.23;5.95;;;;;;;-0.19;76.75;100657.13;5013983;28;20022;-79
2021/12/26 11:10:53;;;;;;;9.98;5.32;;;;;;;-0.12;77.13;100659.81;5012960;28;20338;-79
2021/12/26 11:13:26;;;;;;;13.27;5.55;;;;;;;-0.09;76.63;100648.84;5008661;28;20025;-79
2021/12/26 11:15:57;;;;;;;12.95;5.43;;;;;;;-0.02;76.60;100648.09;5004874;28;20048;-79
2021/12/26 11:18:23;;;;;;;12.60;5.90;;;;;;;0.03;76.20;100646.47;5015645;28;20026;-80
2021/12/26 11:20:50;;;;;;;12.90;5.88;;;;;;;0.07;76.22;100639.75;5012823;28;20041;-80
2021/12/26 11:23:23;;;;;;;12.48;5.88;;;;;;;0.06;76.36;100636.34;4997333;28;20035;-80
2021/12/26 11:25:56;;;;;;;13.35;5.90;;;;;;;0.07;76.94;100639.75;5030503;28;20114;-80
2021/12/26 11:28:28;;;;;;;11.63;5.80;;;;;;;0.07;75.79;100632.94;5014302;28;20553;-80